Share

سنندج, ایران

07:46 AM IRDT on آوریل 25, 2014 (GMT +0430)
Sanandaj (OICS) Elev 4521 ft | 35.25 °N, 47.01 °E | Change Station

Current weather conditions updated 16 minutes ago

Clear
صاف
41 °F
Feels Like 41 °F
N
0
باد متغير باد from شمال
طلوع آفتاب 6:37 AM
غروب آفتاب 8:02 PM
ماه Waning Crescent

Today is forecast to be Warmer than yesterday.

فشار 30.09 در
ديد -9999.0 مايل، ميل (در برابر كيلومتر
ابری
قطره شبنم 37 °F
رطوبت 87%
بارش باران 0.00 در
برف عمیق Not available.
مادون قرمز Not available.
Pollen Not available.
تمیزی هوا Not available.
Flu Activity Not available.
METAR OICS 250300Z 00000KT CAVOK 05/03 Q1019

More Conditions Fewer Conditions

فشار 30.09 در
ديد -9999.0 مايل، ميل (در برابر كيلومتر
ابری
قطره شبنم 37 °F
رطوبت 87%
بارش باران 0.00 در
برف عمیق Not available.
مادون قرمز Not available.
Pollen Not available.
تمیزی هوا Not available.
Flu Activity Not available.
METAR OICS 250300Z 00000KT CAVOK 05/03 Q1019

More Conditions Fewer Conditions

10-Day Weather Forecast

Almanac

ستاره شناسی

Apr. 25, 2014 Rise Set
وقت حقیقی 6:37 AM IRDT 8:02 PM IRDT
تاریک و روشن اجتماعی 6:11 AM IRDT 8:29 PM IRDT
تاریک روشن دریایی 5:39 AM IRDT 9:01 PM IRDT
شفق و فلق نجومی 5:05 AM IRDT 9:35 PM IRDT
ماه 4:02 AM IRDT 4:08 PM IRDT
میزان روشنایی روز 14h 18m
طول روز
13h 25m
Tomorrow will be 2m 0s longer.
Waning Crescent, 20% of the Moon is Illuminated
Apr 24
Waning Crescent
Apr 29
New
May 6
ربع اول
May 14
ماه کامل
May 21
ربع آخر

Yesterday's Extremes

Country Highs Country Lows

Community

  • Critter
    Critter
  • Jone Runs Falls
    Jone Runs Falls
  • Easter in Shenandoah National Park
    Easter in Shenandoah National Park
  • Sunset at Apalachicola Bay, Florida
    Sunset at Apalachicola Bay, Florida
  • Clouds mov'n in
    Clouds mov'n in

WunderPhotos

Upload Photos

1,704,822 photos uploaded!

WunderBlogs® & News

Nearby

تمیزی هوا

Not available.

عمق برف

Not available.

Coastal Water Temperatures

منطقه درجه حرارت
No Stations Reporting

Earthquake Activity

شهر Distance Mag. Time & Date
No recent earthquake activity has been reported nearby.
Minimum magnitude displayed is 2.5.

Nearby Weather Stations

There are no personal weather stations in this area.

What do you think?

We're not finished. Please let us know what you like, what you don't like, and what you are still missing.